Sycamore, Ohio
Current Conditions -  °F | °C
As of 9:37 AM on Tuesday 27 Jan 2015 (Local Time) from KMNN Reporting Station
Haze Haze  
Wind Chill: -4°   Ceiling: 2700
Heat Index:   Visibility: 2.5mi
Dew Point:   Wind: 8mph
Humidity: 83%   Direction: 320°NW
Pressure: 30.05"   Gusts: NA
Location:  40.95°N, 83.17°W
Report Text: KMNN 271437Z AUTO 32007KT 2 1/2SM BR BKN027 OVC110 M13/M16 A3005 RMK AO2 T11331156 TSNO
Loading
Personal Weather Stations






























Interactive Weather Map New forecast layout! Learn more

10-Day Weather Forecast

Advertisements
Track Severe Weather on mobile